createdAt,value
2023-03-03T00:01:18.638Z,1.28
2023-03-03T00:03:45.748Z,1.34
2023-03-03T00:06:14.611Z,1.27
2023-03-03T00:08:41.302Z,1.27
2023-03-03T00:11:08.168Z,1.21
2023-03-03T00:13:42.502Z,1.21
2023-03-03T00:16:30.662Z,1.19
2023-03-03T00:18:58.316Z,1.25
2023-03-03T00:21:30.470Z,1.20
2023-03-03T00:24:12.375Z,1.19
2023-03-03T00:26:41.844Z,1.12
2023-03-03T00:29:27.043Z,1.03
2023-03-03T00:31:54.116Z,0.90
2023-03-03T00:34:27.079Z,0.90
2023-03-03T00:36:56.290Z,0.85
2023-03-03T00:39:35.699Z,0.91
2023-03-03T00:42:04.336Z,0.88
2023-03-03T00:44:35.654Z,0.86
2023-03-03T00:47:13.972Z,0.87
2023-03-03T00:49:41.486Z,0.93
2023-03-03T00:52:16.124Z,0.67
2023-03-03T00:54:42.886Z,0.46
2023-03-03T00:57:10.227Z,0.57
2023-03-03T00:59:36.785Z,0.59
2023-03-03T01:02:03.381Z,0.58
2023-03-03T01:04:29.948Z,0.54
2023-03-03T01:06:56.557Z,0.58
2023-03-03T01:09:23.668Z,0.39
2023-03-03T01:11:51.673Z,0.41
2023-03-03T01:14:18.394Z,0.45
2023-03-03T01:16:45.028Z,0.43
2023-03-03T01:19:11.601Z,0.41
2023-03-03T01:21:38.821Z,0.40
2023-03-03T01:24:05.643Z,0.40
2023-03-03T01:26:32.227Z,0.38
2023-03-03T01:28:58.815Z,0.42
2023-03-03T01:31:25.521Z,0.41
2023-03-03T01:33:52.176Z,0.43
2023-03-03T01:36:24.652Z,0.38
2023-03-03T01:38:51.431Z,0.36
2023-03-03T01:41:18.512Z,0.34
2023-03-03T01:43:49.241Z,0.29
2023-03-03T01:46:37.056Z,0.29
2023-03-03T01:49:12.774Z,0.33
2023-03-03T01:51:47.984Z,0.25
2023-03-03T01:54:21.805Z,0.29
2023-03-03T01:56:50.038Z,0.37
2023-03-03T01:59:23.658Z,0.16
2023-03-03T02:01:50.708Z,0.11
2023-03-03T02:04:17.991Z,0.19
2023-03-03T02:06:51.094Z,0.21
2023-03-03T02:09:37.088Z,0.21
2023-03-03T02:12:08.298Z,0.24
2023-03-03T02:14:35.417Z,0.16
2023-03-03T02:17:02.020Z,0.31
2023-03-03T02:19:52.669Z,0.31
2023-03-03T02:22:26.347Z,0.21
2023-03-03T02:25:02.080Z,0.26
2023-03-03T02:27:33.702Z,0.20
2023-03-03T02:30:13.897Z,0.31
2023-03-03T02:32:40.575Z,0.32
2023-03-03T02:35:29.941Z,0.36
2023-03-03T02:38:07.727Z,0.34
2023-03-03T02:40:38.458Z,0.35
2023-03-03T02:43:07.069Z,0.31
2023-03-03T02:45:33.758Z,0.30
2023-03-03T02:48:03.581Z,0.21
2023-03-03T02:50:30.294Z,0.05
2023-03-03T02:52:56.859Z,0.14
2023-03-03T02:55:23.454Z,0.10
2023-03-03T02:57:49.994Z,0.15
2023-03-03T03:00:16.755Z,0.12
2023-03-03T03:02:43.822Z,0.11
2023-03-03T03:05:10.425Z,0.13
2023-03-03T03:07:37.012Z,0.13
2023-03-03T03:10:04.345Z,0.13
2023-03-03T03:12:31.483Z,0.10
2023-03-03T03:14:58.131Z,0.08
2023-03-03T03:17:24.760Z,0.05
2023-03-03T03:19:51.413Z,0.05
2023-03-03T03:22:19.507Z,0.09
2023-03-03T03:24:46.091Z,0.08
2023-03-03T03:27:12.697Z,-0.04
2023-03-03T03:29:39.274Z,-0.03
2023-03-03T03:32:06.157Z,-0.01
2023-03-03T03:34:32.757Z,0.00
2023-03-03T03:36:59.388Z,-0.02
2023-03-03T03:39:25.960Z,0.00
2023-03-03T03:41:52.654Z,-0.10
2023-03-03T03:44:19.278Z,-0.09
2023-03-03T03:46:45.905Z,-0.12
2023-03-03T03:49:12.619Z,-0.17
2023-03-03T03:51:41.487Z,-0.18
2023-03-03T03:54:08.372Z,-0.20
2023-03-03T03:56:35.127Z,-0.20
2023-03-03T03:59:01.820Z,-0.23
2023-03-03T04:01:31.658Z,-0.24
2023-03-03T04:03:58.245Z,-0.22
2023-03-03T04:06:25.144Z,-0.26
2023-03-03T04:08:51.773Z,-0.25
2023-03-03T04:11:18.383Z,-0.19
2023-03-03T04:13:45.083Z,-0.36
2023-03-03T04:16:11.754Z,-0.29
2023-03-03T04:18:38.574Z,-0.34
2023-03-03T04:21:05.557Z,-0.36
2023-03-03T04:23:32.143Z,-0.39
2023-03-03T04:25:58.732Z,-0.38
2023-03-03T04:28:26.438Z,-0.39
2023-03-03T04:30:53.110Z,-0.51
2023-03-03T04:33:19.757Z,-0.48
2023-03-03T04:35:46.417Z,-0.42
2023-03-03T04:38:13.206Z,-0.67
2023-03-03T04:40:42.036Z,-0.72
2023-03-03T04:43:09.873Z,-0.61
2023-03-03T04:45:37.489Z,-0.56
2023-03-03T04:48:04.351Z,-0.60
2023-03-03T04:50:30.970Z,-0.65
2023-03-03T04:52:57.753Z,-0.60
2023-03-03T04:55:24.437Z,-0.67
2023-03-03T04:57:51.268Z,-0.62
2023-03-03T05:00:18.230Z,-0.70
2023-03-03T05:02:45.052Z,-0.58
2023-03-03T05:05:11.730Z,-0.56
2023-03-03T05:07:38.329Z,-0.55
2023-03-03T05:10:06.036Z,-0.55
2023-03-03T05:12:32.691Z,-0.46
2023-03-03T05:14:59.503Z,-0.58
2023-03-03T05:17:26.123Z,-0.55
2023-03-03T05:19:52.728Z,-0.55
2023-03-03T05:22:19.351Z,-0.57
2023-03-03T05:24:49.122Z,-0.49
2023-03-03T05:27:16.900Z,-0.49
2023-03-03T05:29:43.668Z,-0.48
2023-03-03T05:32:10.328Z,-0.41
2023-03-03T05:34:37.308Z,-0.49
2023-03-03T05:37:06.653Z,-0.50
2023-03-03T05:39:34.740Z,-0.57
2023-03-03T05:42:01.731Z,-0.59
2023-03-03T05:44:28.630Z,-0.65
2023-03-03T05:46:57.702Z,-0.58
2023-03-03T05:49:24.963Z,-0.53
2023-03-03T05:51:51.635Z,-0.55
2023-03-03T05:54:18.308Z,-0.58
2023-03-03T05:56:45.030Z,-0.69
2023-03-03T05:59:11.690Z,-0.62
2023-03-03T06:01:38.644Z,-0.62
2023-03-03T06:04:05.360Z,-0.58
2023-03-03T06:06:32.134Z,-0.59
2023-03-03T06:08:58.798Z,-0.86
2023-03-03T06:11:25.385Z,-0.76
2023-03-03T06:13:52.023Z,-0.70
2023-03-03T06:16:19.144Z,-0.68
2023-03-03T06:18:45.944Z,-0.67
2023-03-03T06:21:12.629Z,-0.74
2023-03-03T06:23:39.302Z,-1.08
2023-03-03T06:26:05.909Z,-1.01
2023-03-03T06:28:32.672Z,-0.99
2023-03-03T06:30:59.458Z,-0.94
2023-03-03T06:33:26.213Z,-0.88
2023-03-03T06:35:54.299Z,-0.86
2023-03-03T06:38:20.943Z,-0.80
2023-03-03T06:40:47.790Z,-0.78
2023-03-03T06:43:14.774Z,-0.72
2023-03-03T06:45:41.512Z,-0.83
2023-03-03T06:48:08.166Z,-0.77
2023-03-03T06:50:35.077Z,-0.69
2023-03-03T06:53:12.646Z,-0.62
2023-03-03T06:55:39.772Z,-0.60
2023-03-03T06:58:14.048Z,-0.56
2023-03-03T07:00:44.255Z,-0.45
2023-03-03T07:03:23.538Z,-0.45
2023-03-03T07:05:51.507Z,-0.47
2023-03-03T07:08:20.498Z,-0.40
2023-03-03T07:10:48.423Z,-0.36
2023-03-03T07:13:19.649Z,-0.27
2023-03-03T07:15:48.233Z,-0.12
2023-03-03T07:18:34.288Z,-0.06
2023-03-03T07:21:14.864Z,-0.05
2023-03-03T07:23:43.173Z,0.05
2023-03-03T07:26:14.619Z,0.15
2023-03-03T07:28:43.994Z,0.19
2023-03-03T07:31:31.393Z,0.43
2023-03-03T07:34:00.005Z,0.56
2023-03-03T07:36:31.054Z,0.76
2023-03-03T07:39:01.618Z,0.81
2023-03-03T07:41:30.894Z,0.83
2023-03-03T07:44:06.120Z,1.01
2023-03-03T07:46:49.272Z,1.12
2023-03-03T07:49:35.996Z,1.26
2023-03-03T07:52:18.235Z,1.42
2023-03-03T07:54:46.200Z,1.53
2023-03-03T07:57:28.140Z,1.58
2023-03-03T08:00:02.408Z,1.61
2023-03-03T08:02:40.154Z,1.86
2023-03-03T08:05:22.245Z,1.91
2023-03-03T08:07:50.861Z,2.15
2023-03-03T08:10:33.726Z,2.28
2023-03-03T08:13:09.039Z,2.35
2023-03-03T08:15:37.559Z,2.41
2023-03-03T08:18:19.841Z,2.54
2023-03-03T08:20:48.451Z,2.73
2023-03-03T08:23:17.003Z,2.77
2023-03-03T08:25:44.368Z,2.81
2023-03-03T08:28:12.575Z,2.88
2023-03-03T08:30:39.351Z,3.11
2023-03-03T08:33:06.072Z,3.26
2023-03-03T08:35:32.807Z,3.28
2023-03-03T08:37:59.506Z,3.47
2023-03-03T08:40:26.179Z,3.47
2023-03-03T08:42:54.411Z,3.70
2023-03-03T08:45:21.294Z,3.86
2023-03-03T08:47:47.933Z,3.94
2023-03-03T08:50:15.355Z,4.05
2023-03-03T08:52:42.154Z,4.10
2023-03-03T08:55:09.310Z,4.17
2023-03-03T08:57:36.125Z,4.26
2023-03-03T09:00:02.827Z,4.39
2023-03-03T09:02:29.474Z,4.47
2023-03-03T09:04:56.122Z,4.62
2023-03-03T09:07:22.889Z,4.59
2023-03-03T09:09:49.512Z,4.60
2023-03-03T09:12:19.592Z,4.63
2023-03-03T09:14:47.355Z,4.73
2023-03-03T09:17:32.110Z,4.80
2023-03-03T09:20:17.626Z,4.91
2023-03-03T09:22:45.026Z,4.90
2023-03-03T09:25:22.411Z,5.09
2023-03-03T09:27:49.122Z,5.21
2023-03-03T09:30:36.394Z,5.25
2023-03-03T09:33:21.656Z,5.46
2023-03-03T09:35:51.889Z,5.67
2023-03-03T09:38:30.890Z,5.85
2023-03-03T09:41:12.617Z,5.85
2023-03-03T09:44:12.264Z,6.10
2023-03-03T09:47:06.962Z,6.40
2023-03-03T09:49:42.799Z,6.43
2023-03-03T09:52:34.442Z,6.60
2023-03-03T09:55:09.596Z,6.56
2023-03-03T09:58:10.832Z,6.72
2023-03-03T10:00:47.301Z,6.84
2023-03-03T10:03:33.888Z,6.99
2023-03-03T10:06:16.802Z,7.01
2023-03-03T10:09:13.984Z,7.28
2023-03-03T10:12:08.254Z,7.50
2023-03-03T10:14:46.410Z,7.54
2023-03-03T10:17:28.408Z,7.55
2023-03-03T10:20:22.337Z,7.73
2023-03-03T10:22:55.939Z,7.78
2023-03-03T10:25:42.323Z,7.79
2023-03-03T10:28:32.994Z,7.85
2023-03-03T10:31:06.690Z,7.95
2023-03-03T10:33:57.813Z,8.04
2023-03-03T10:36:47.039Z,8.11
2023-03-03T10:39:20.727Z,8.16
2023-03-03T10:42:03.261Z,8.21
2023-03-03T10:44:58.895Z,8.22
2023-03-03T10:47:46.449Z,8.28
2023-03-03T10:50:21.545Z,8.38
2023-03-03T10:52:58.884Z,8.44
2023-03-03T10:55:26.625Z,8.49
2023-03-03T10:58:09.603Z,8.41
2023-03-03T11:00:59.599Z,8.37
2023-03-03T11:03:49.961Z,8.58
2023-03-03T11:06:35.071Z,8.44
2023-03-03T11:09:05.175Z,8.64
2023-03-03T11:11:37.859Z,8.67
2023-03-03T11:14:35.283Z,8.92
2023-03-03T11:17:02.459Z,8.83
2023-03-03T11:19:59.781Z,9.12
2023-03-03T11:22:27.400Z,9.15
2023-03-03T11:25:15.855Z,9.19
2023-03-03T11:27:58.822Z,9.14
2023-03-03T11:30:40.784Z,9.13
2023-03-03T11:33:16.307Z,9.08
2023-03-03T11:36:09.151Z,9.38
2023-03-03T11:38:35.713Z,9.42
2023-03-03T11:41:11.772Z,9.53
2023-03-03T11:43:43.738Z,9.56
2023-03-03T11:46:17.056Z,9.27
2023-03-03T11:48:59.528Z,9.25
2023-03-03T11:51:50.665Z,9.37
2023-03-03T11:54:24.886Z,9.51
2023-03-03T11:56:57.346Z,9.62
2023-03-03T11:59:34.135Z,9.56
2023-03-03T12:02:30.417Z,9.76
2023-03-03T12:05:09.428Z,9.77
2023-03-03T12:08:04.084Z,9.85
2023-03-03T12:10:46.080Z,9.98
2023-03-03T12:13:25.306Z,9.96
2023-03-03T12:16:07.689Z,9.87
2023-03-03T12:18:35.299Z,9.91
2023-03-03T12:21:34.663Z,10.09
2023-03-03T12:24:27.817Z,10.17
2023-03-03T12:27:06.507Z,9.87
2023-03-03T12:29:46.821Z,9.91
2023-03-03T12:32:27.243Z,9.97
2023-03-03T12:35:10.362Z,10.07
2023-03-03T12:37:53.397Z,10.07
2023-03-03T12:40:27.252Z,10.06
2023-03-03T12:43:09.018Z,10.28
2023-03-03T12:45:55.287Z,10.28
2023-03-03T12:48:33.384Z,10.36
2023-03-03T12:51:06.821Z,10.43
2023-03-03T12:53:41.642Z,10.48
2023-03-03T12:56:11.939Z,10.46
2023-03-03T12:59:14.781Z,10.32
2023-03-03T13:01:49.146Z,10.37
2023-03-03T13:04:31.093Z,10.50
2023-03-03T13:07:08.618Z,10.58
2023-03-03T13:09:56.553Z,10.54
2023-03-03T13:12:45.716Z,10.67
2023-03-03T13:15:18.484Z,10.60
2023-03-03T13:18:13.231Z,10.69
2023-03-03T13:20:56.012Z,10.82
2023-03-03T13:23:41.908Z,10.74
2023-03-03T13:26:18.726Z,10.84
2023-03-03T13:29:19.725Z,10.82
2023-03-03T13:31:57.154Z,10.87
2023-03-03T13:34:32.966Z,10.87
2023-03-03T13:37:08.245Z,10.85
2023-03-03T13:39:57.681Z,10.99
2023-03-03T13:42:43.709Z,11.04
2023-03-03T13:45:35.736Z,11.02
2023-03-03T13:48:17.986Z,10.96
2023-03-03T13:50:44.573Z,11.14
2023-03-03T13:53:41.764Z,11.14
2023-03-03T13:56:33.246Z,11.15
2023-03-03T13:59:10.038Z,11.25
2023-03-03T14:02:04.884Z,11.28
2023-03-03T14:04:53.192Z,11.21
2023-03-03T14:07:35.974Z,11.22
2023-03-03T14:10:15.107Z,11.23
2023-03-03T14:12:51.708Z,11.07
2023-03-03T14:15:27.797Z,11.14
2023-03-03T14:18:18.698Z,11.08
2023-03-03T14:20:52.192Z,11.08
2023-03-03T14:23:40.535Z,11.27
2023-03-03T14:26:10.552Z,11.17
2023-03-03T14:28:48.338Z,11.08
2023-03-03T14:31:20.853Z,11.02
2023-03-03T14:34:14.368Z,11.09
2023-03-03T14:36:43.401Z,11.06
2023-03-03T14:39:34.081Z,11.02
2023-03-03T14:42:05.521Z,11.16
2023-03-03T14:44:54.916Z,11.15
2023-03-03T14:47:24.794Z,11.06
2023-03-03T14:49:51.875Z,11.05
2023-03-03T14:52:27.190Z,10.98
2023-03-03T14:55:00.426Z,11.00
2023-03-03T14:57:51.626Z,11.10
2023-03-03T15:00:19.177Z,11.13
2023-03-03T15:03:21.078Z,11.16
2023-03-03T15:05:51.226Z,11.12
2023-03-03T15:08:28.399Z,10.98
2023-03-03T15:10:55.080Z,11.11
2023-03-03T15:13:21.688Z,11.14
2023-03-03T15:15:53.619Z,11.12
2023-03-03T15:18:20.631Z,11.02
2023-03-03T15:20:56.089Z,11.08
2023-03-03T15:23:53.148Z,11.07
2023-03-03T15:26:29.974Z,11.03
2023-03-03T15:29:07.880Z,10.93
2023-03-03T15:32:01.080Z,10.92
2023-03-03T15:34:39.864Z,10.95
2023-03-03T15:37:21.836Z,10.82
2023-03-03T15:40:14.147Z,10.92
2023-03-03T15:42:52.807Z,10.81
2023-03-03T15:45:33.695Z,10.70
2023-03-03T15:48:20.205Z,10.76
2023-03-03T15:51:03.440Z,10.53
2023-03-03T15:53:46.487Z,10.34
2023-03-03T15:56:26.262Z,10.28
2023-03-03T15:58:53.851Z,10.33
2023-03-03T16:01:26.387Z,10.28
2023-03-03T16:04:13.436Z,10.15
2023-03-03T16:07:05.431Z,10.09
2023-03-03T16:09:52.228Z,10.08
2023-03-03T16:12:19.740Z,9.98
2023-03-03T16:15:01.694Z,9.97
2023-03-03T16:17:44.400Z,9.83
2023-03-03T16:20:27.212Z,9.74
2023-03-03T16:23:23.066Z,9.62
2023-03-03T16:26:07.619Z,9.55
2023-03-03T16:28:34.247Z,9.43
2023-03-03T16:31:02.905Z,9.40
2023-03-03T16:33:31.506Z,9.37
2023-03-03T16:36:13.386Z,9.37
2023-03-03T16:38:44.047Z,9.35
2023-03-03T16:41:21.326Z,9.21
2023-03-03T16:44:15.821Z,9.20
2023-03-03T16:46:46.469Z,9.06
2023-03-03T16:49:37.816Z,9.05
2023-03-03T16:52:25.828Z,9.05
2023-03-03T16:54:59.457Z,9.05
2023-03-03T16:57:28.070Z,8.95
2023-03-03T17:00:19.106Z,8.93
2023-03-03T17:03:16.188Z,8.82
2023-03-03T17:05:52.108Z,8.74
2023-03-03T17:08:33.367Z,8.66
2023-03-03T17:11:24.911Z,8.58
2023-03-03T17:14:11.670Z,8.60
2023-03-03T17:16:58.320Z,8.50
2023-03-03T17:20:00.777Z,8.53
2023-03-03T17:22:50.955Z,8.43
2023-03-03T17:25:18.577Z,8.37
2023-03-03T17:28:00.369Z,8.27
2023-03-03T17:30:44.792Z,8.22
2023-03-03T17:33:26.784Z,8.19
2023-03-03T17:36:09.861Z,8.18
2023-03-03T17:39:07.099Z,8.14
2023-03-03T17:41:50.988Z,8.18
2023-03-03T17:44:30.430Z,8.22
2023-03-03T17:47:02.392Z,8.17
2023-03-03T17:49:59.701Z,8.13
2023-03-03T17:52:43.156Z,8.06
2023-03-03T17:55:26.188Z,8.02
2023-03-03T17:58:28.108Z,7.95
2023-03-03T18:01:14.620Z,7.91
2023-03-03T18:03:42.358Z,7.84
2023-03-03T18:06:16.372Z,7.76
2023-03-03T18:09:13.649Z,7.73
2023-03-03T18:11:58.190Z,7.72
2023-03-03T18:14:45.737Z,7.72
2023-03-03T18:17:35.470Z,7.64
2023-03-03T18:20:22.587Z,7.63
2023-03-03T18:22:51.501Z,7.57
2023-03-03T18:25:21.785Z,7.47
2023-03-03T18:28:08.312Z,7.39
2023-03-03T18:30:56.179Z,7.35
2023-03-03T18:33:43.834Z,7.23
2023-03-03T18:36:26.857Z,7.00
2023-03-03T18:38:56.700Z,6.81
2023-03-03T18:41:26.744Z,6.80
2023-03-03T18:43:54.961Z,6.75
2023-03-03T18:46:22.757Z,6.70
2023-03-03T18:48:53.220Z,6.59
2023-03-03T18:51:36.167Z,6.50
2023-03-03T18:54:30.892Z,6.44
2023-03-03T18:56:57.957Z,6.32
2023-03-03T18:59:48.530Z,6.16
2023-03-03T19:02:16.185Z,6.10
2023-03-03T19:04:48.575Z,6.08
2023-03-03T19:07:26.715Z,5.89
2023-03-03T19:09:58.058Z,5.68
2023-03-03T19:12:57.948Z,5.54
2023-03-03T19:15:46.918Z,5.47
2023-03-03T19:18:19.205Z,5.44
2023-03-03T19:20:52.248Z,5.40
2023-03-03T19:23:24.272Z,5.23
2023-03-03T19:26:21.448Z,5.23
2023-03-03T19:29:08.776Z,5.11
2023-03-03T19:31:47.668Z,5.00
2023-03-03T19:34:29.587Z,4.96
2023-03-03T19:37:26.786Z,4.91
2023-03-03T19:40:15.196Z,4.84
2023-03-03T19:42:49.036Z,4.79
2023-03-03T19:45:29.932Z,4.66
2023-03-03T19:48:09.077Z,4.56
2023-03-03T19:50:53.898Z,4.54
2023-03-03T19:53:27.770Z,4.47
2023-03-03T19:56:17.215Z,4.45
2023-03-03T19:59:05.802Z,4.45
2023-03-03T20:02:03.576Z,4.24
2023-03-03T20:05:02.850Z,4.03
2023-03-03T20:07:53.805Z,4.05
2023-03-03T20:10:38.724Z,3.98
2023-03-03T20:13:25.406Z,4.01
2023-03-03T20:16:27.788Z,3.94
2023-03-03T20:19:09.050Z,3.89
2023-03-03T20:22:02.903Z,3.94
2023-03-03T20:24:55.417Z,3.77
2023-03-03T20:27:29.309Z,3.72
2023-03-03T20:30:08.403Z,3.74
2023-03-03T20:32:40.447Z,3.70
2023-03-03T20:35:23.420Z,3.61
2023-03-03T20:38:06.885Z,3.53
2023-03-03T20:40:58.270Z,3.42
2023-03-03T20:43:50.442Z,3.44
2023-03-03T20:46:40.455Z,3.46
2023-03-03T20:49:17.881Z,3.21
2023-03-03T20:52:08.255Z,3.06
2023-03-03T20:54:49.186Z,3.15
2023-03-03T20:57:41.409Z,3.17
2023-03-03T21:00:14.857Z,3.14
2023-03-03T21:03:00.296Z,3.14
2023-03-03T21:05:27.103Z,3.11
2023-03-03T21:07:58.805Z,3.08
2023-03-03T21:10:28.484Z,3.03
2023-03-03T21:12:57.228Z,2.98
2023-03-03T21:15:26.852Z,2.95
2023-03-03T21:17:55.025Z,2.99
2023-03-03T21:20:31.856Z,2.96
2023-03-03T21:23:00.260Z,2.96
2023-03-03T21:25:44.857Z,2.96
2023-03-03T21:28:17.958Z,2.95
2023-03-03T21:31:01.288Z,2.93
2023-03-03T21:33:44.160Z,2.88
2023-03-03T21:36:13.802Z,2.87
2023-03-03T21:38:40.934Z,2.75
2023-03-03T21:41:09.269Z,2.77
2023-03-03T21:43:41.346Z,2.74
2023-03-03T21:46:08.376Z,2.72
2023-03-03T21:48:35.175Z,2.67
2023-03-03T21:51:02.157Z,2.62
2023-03-03T21:53:29.600Z,2.57
2023-03-03T21:55:56.440Z,2.55
2023-03-03T21:58:23.170Z,2.58
2023-03-03T22:00:49.805Z,2.55
2023-03-03T22:03:20.013Z,2.52
2023-03-03T22:05:49.111Z,2.53
2023-03-03T22:08:22.645Z,2.53
2023-03-03T22:10:56.073Z,2.50
2023-03-03T22:13:24.533Z,2.40
2023-03-03T22:15:52.189Z,2.47
2023-03-03T22:18:19.779Z,2.42
2023-03-03T22:20:47.523Z,2.39
2023-03-03T22:23:15.149Z,2.40
2023-03-03T22:25:42.306Z,2.38
2023-03-03T22:28:09.439Z,2.36
2023-03-03T22:30:37.227Z,2.33
2023-03-03T22:33:04.152Z,2.31
2023-03-03T22:35:31.177Z,2.22
2023-03-03T22:37:58.130Z,2.10
2023-03-03T22:40:24.985Z,1.99
2023-03-03T22:42:51.797Z,1.96
2023-03-03T22:45:18.464Z,1.87
2023-03-03T22:47:45.140Z,1.74
2023-03-03T22:50:12.518Z,1.61
2023-03-03T22:52:39.152Z,1.53
2023-03-03T22:55:09.667Z,1.49
2023-03-03T22:57:36.247Z,1.42
2023-03-03T23:00:03.448Z,1.39
2023-03-03T23:02:30.139Z,1.30
2023-03-03T23:05:01.107Z,1.24
2023-03-03T23:07:29.241Z,1.21
2023-03-03T23:09:56.173Z,1.18
2023-03-03T23:12:23.249Z,1.14
2023-03-03T23:14:49.856Z,1.13
2023-03-03T23:17:16.542Z,1.15
2023-03-03T23:19:46.169Z,1.18
2023-03-03T23:22:13.694Z,1.17
2023-03-03T23:24:41.090Z,1.16
2023-03-03T23:27:09.271Z,1.24
2023-03-03T23:29:36.317Z,1.25
2023-03-03T23:32:04.462Z,1.14
2023-03-03T23:34:32.297Z,1.06
2023-03-03T23:36:58.911Z,1.06
2023-03-03T23:39:25.553Z,1.05
2023-03-03T23:41:52.099Z,1.00
2023-03-03T23:44:18.805Z,0.97
2023-03-03T23:46:45.530Z,0.93
2023-03-03T23:49:12.201Z,0.87
2023-03-03T23:51:38.835Z,0.81
2023-03-03T23:54:05.565Z,0.78
2023-03-03T23:56:32.150Z,0.75
2023-03-03T23:58:58.770Z,0.71
